Time;durP1;ratioP1;P1;durP2;ratioP2;P2;SDS_P1;SDS_P2;PMS_P1;PMS_P2;Temp;Humidity;BMP_temperature;BMP_pressure;BME280_temperature;BME280_humidity;BME280_pressure;Samples;Min_cycle;Max_cycle;Signal;HPM_P1;HPM_P2
2022/10/02 00:02:21;;;;;;;7.82;4.20;;;9.70;99.90;;;;;;4951077;28;20075;-70
2022/10/02 00:04:57;;;;;;;5.85;4.13;;;9.80;99.90;;;;;;4958648;28;20444;-71
2022/10/02 00:07:44;;;;;;;6.70;4.25;;;9.80;99.90;;;;;;4974133;28;20027;-71
2022/10/02 00:10:29;;;;;;;6.05;3.92;;;9.90;99.90;;;;;;4974799;28;20026;-71
2022/10/02 00:13:01;;;;;;;8.35;4.75;;;10.00;99.90;;;;;;4958985;28;20027;-71
2022/10/02 00:15:30;;;;;;;6.43;4.05;;;10.10;99.90;;;;;;4958692;28;20053;-71
2022/10/02 00:18:03;;;;;;;9.93;4.70;;;10.10;99.90;;;;;;4958495;28;20030;-71
2022/10/02 00:20:56;;;;;;;6.22;4.20;;;10.00;99.90;;;;;;4961854;28;20027;-71
2022/10/02 00:23:34;;;;;;;6.30;4.03;;;9.80;99.90;;;;;;4961618;28;20090;-71
2022/10/02 00:26:23;;;;;;;9.27;4.43;;;9.80;99.90;;;;;;4961651;28;20118;-70
2022/10/02 00:29:15;;;;;;;8.63;4.40;;;9.70;99.90;;;;;;4960388;28;20568;-70
2022/10/02 00:31:49;;;;;;;6.15;4.53;;;9.70;99.90;;;;;;4971877;28;20035;-70
2022/10/02 00:34:41;;;;;;;7.78;4.47;;;9.80;99.90;;;;;;4972455;28;20112;-70
2022/10/02 00:37:34;;;;;;;6.80;3.57;;;9.80;99.90;;;;;;5017201;28;20474;-70
2022/10/02 00:40:21;;;;;;;8.48;4.18;;;9.80;99.90;;;;;;5017786;28;20026;-70
2022/10/02 00:43:16;;;;;;;5.10;3.58;;;9.80;99.90;;;;;;4999458;28;20022;-70
2022/10/02 00:45:56;;;;;;;11.45;4.35;;;9.80;99.90;;;;;;5017402;28;20032;-70
2022/10/02 00:48:45;;;;;;;6.38;4.13;;;9.80;99.90;;;;;;5017313;28;20030;-70
2022/10/02 00:51:23;;;;;;;7.60;3.70;;;9.80;99.90;;;;;;5017262;28;20030;-70
2022/10/02 00:53:55;;;;;;;6.72;4.03;;;10.00;99.90;;;;;;5000119;28;20026;-70
2022/10/02 00:56:29;;;;;;;6.65;3.75;;;9.90;99.90;;;;;;5017170;28;20030;-70
2022/10/02 00:59:01;;;;;;;7.65;4.03;;;9.90;99.90;;;;;;5017049;28;20111;-70
2022/10/02 01:01:40;;;;;;;5.78;3.00;;;9.80;99.90;;;;;;5017024;28;20405;-70
2022/10/02 01:04:18;;;;;;;6.45;3.70;;;9.70;99.90;;;;;;4999432;28;20050;-70
2022/10/02 01:06:43;;;;;;;6.00;4.32;;;9.70;99.90;;;;;;5016636;28;20026;-70
2022/10/02 01:09:10;;;;;;;7.40;4.03;;;9.70;99.90;;;;;;5016628;28;20032;-70
2022/10/02 01:11:37;;;;;;;8.32;3.90;;;9.80;99.90;;;;;;5016508;28;20097;-70
2022/10/02 01:14:03;;;;;;;7.07;4.15;;;9.80;99.90;;;;;;4998839;28;20117;-70
2022/10/02 01:16:31;;;;;;;9.13;4.90;;;9.80;99.90;;;;;;5016524;28;20029;-70
2022/10/02 01:18:56;;;;;;;8.70;3.80;;;9.80;99.90;;;;;;4998784;28;20072;-70
2022/10/02 01:21:36;;;;;;;10.85;3.92;;;9.80;99.90;;;;;;4999663;28;20022;-70
2022/10/02 01:24:25;;;;;;;7.72;3.95;;;9.90;99.90;;;;;;4998850;28;20032;-70
2022/10/02 01:26:51;;;;;;;7.93;3.58;;;9.90;99.90;;;;;;5039351;23;20057;-72
2022/10/02 01:29:17;;;;;;;9.07;4.03;;;9.90;99.90;;;;;;5016336;28;20030;-72
2022/10/02 01:31:43;;;;;;;7.68;3.88;;;9.80;99.90;;;;;;4998964;28;20091;-72
2022/10/02 01:34:09;;;;;;;6.13;3.47;;;9.90;99.90;;;;;;5016288;28;20030;-73
2022/10/02 01:36:35;;;;;;;5.07;3.47;;;9.80;99.90;;;;;;5013678;28;20026;-73
2022/10/02 01:39:01;;;;;;;6.38;3.90;;;9.80;99.90;;;;;;5017946;28;20377;-73
2022/10/02 01:41:27;;;;;;;6.22;3.47;;;9.80;99.90;;;;;;5018782;28;20025;-73
2022/10/02 01:43:57;;;;;;;7.95;4.00;;;9.80;99.90;;;;;;5018140;28;20112;-73
2022/10/02 01:46:40;;;;;;;6.78;3.72;;;9.90;99.90;;;;;;5018230;28;20036;-73
2022/10/02 01:49:24;;;;;;;4.57;3.55;;;9.90;99.90;;;;;;5017991;28;20022;-73
2022/10/02 01:52:22;;;;;;;8.75;3.75;;;9.90;99.90;;;;;;5018036;28;20029;-73
2022/10/02 01:54:51;;;;;;;5.43;3.58;;;9.80;99.90;;;;;;4988224;28;20034;-73
2022/10/02 01:57:24;;;;;;;6.88;3.55;;;9.90;99.90;;;;;;5018173;28;20071;-73
2022/10/02 02:00:10;;;;;;;6.45;4.63;;;9.90;99.90;;;;;;5017723;28;20060;-73
2022/10/02 02:02:54;;;;;;;8.20;3.75;;;9.90;99.90;;;;;;5018159;28;20026;-73
2022/10/02 02:05:28;;;;;;;6.53;4.00;;;9.90;99.90;;;;;;5017620;28;20112;-73
2022/10/02 02:07:59;;;;;;;7.80;4.32;;;9.90;99.90;;;;;;5017577;28;20473;-73
2022/10/02 02:10:42;;;;;;;8.15;4.13;;;9.90;99.90;;;;;;5018166;28;20040;-73
2022/10/02 02:13:29;;;;;;;6.75;3.47;;;10.00;99.90;;;;;;5018925;28;20030;-72
2022/10/02 02:16:05;;;;;;;9.30;4.05;;;10.00;99.90;;;;;;5036884;28;20538;-72
2022/10/02 02:18:42;;;;;;;7.43;4.35;;;10.00;99.90;;;;;;5018990;28;20026;-72
2022/10/02 02:21:26;;;;;;;5.35;3.45;;;10.10;99.90;;;;;;5035929;28;20096;-73
2022/10/02 02:23:54;;;;;;;8.93;3.55;;;10.10;99.90;;;;;;5018880;28;20198;-73
2022/10/02 02:26:23;;;;;;;10.30;3.83;;;10.10;99.90;;;;;;5017569;28;20037;-73
2022/10/02 02:28:54;;;;;;;5.75;3.58;;;10.10;99.90;;;;;;5017916;28;20021;-73
2022/10/02 02:31:28;;;;;;;5.57;3.47;;;10.10;99.90;;;;;;5026569;28;20036;-72
2022/10/02 02:33:58;;;;;;;11.48;4.53;;;10.20;99.90;;;;;;5018490;28;20079;-72
2022/10/02 02:36:34;;;;;;;8.20;4.28;;;10.20;99.90;;;;;;5018730;28;20018;-72
2022/10/02 02:39:04;;;;;;;8.85;4.95;;;10.30;99.90;;;;;;5019060;28;20029;-72
2022/10/02 02:41:59;;;;;;;6.63;4.57;;;10.30;99.90;;;;;;5019322;28;20427;-73
2022/10/02 02:44:40;;;;;;;7.03;4.30;;;10.30;99.90;;;;;;5015624;28;20057;-72
2022/10/02 02:47:13;;;;;;;7.23;4.60;;;10.40;99.90;;;;;;5017984;28;20021;-72
2022/10/02 02:49:53;;;;;;;9.88;4.30;;;10.30;99.90;;;;;;5035262;28;20037;-72
2022/10/02 02:52:25;;;;;;;9.07;4.65;;;10.30;99.90;;;;;;5017464;28;20025;-73
2022/10/02 02:55:02;;;;;;;9.65;5.05;;;10.30;99.90;;;;;;5017637;28;20087;-73
2022/10/02 02:57:32;;;;;;;12.10;4.72;;;10.30;99.90;;;;;;5019651;28;20136;-73
2022/10/02 02:59:59;;;;;;;8.73;4.20;;;10.40;99.90;;;;;;5035669;28;20071;-73
2022/10/02 03:02:24;;;;;;;11.98;4.55;;;10.40;99.90;;;;;;5017782;28;20048;-73
2022/10/02 03:04:50;;;;;;;7.72;4.88;;;10.40;99.90;;;;;;5018451;28;20412;-73
2022/10/02 03:07:16;;;;;;;11.73;4.80;;;10.40;99.90;;;;;;5016870;28;20108;-73
2022/10/02 03:09:55;;;;;;;14.45;5.18;;;10.40;99.90;;;;;;5017330;28;20033;-72
2022/10/02 03:12:56;;;;;;;10.07;4.70;;;10.40;99.90;;;;;;5036245;28;20079;-72
2022/10/02 03:15:50;;;;;;;13.07;5.05;;;10.40;99.90;;;;;;5012131;28;20045;-72
2022/10/02 03:18:26;;;;;;;9.60;4.60;;;10.30;99.90;;;;;;5017131;28;20037;-73
2022/10/02 03:21:09;;;;;;;7.35;4.13;;;10.40;99.90;;;;;;5035708;28;20021;-73
2022/10/02 03:24:00;;;;;;;10.18;4.75;;;10.40;99.90;;;;;;5036674;28;20030;-73
2022/10/02 03:26:40;;;;;;;11.77;4.97;;;10.40;99.90;;;;;;5017215;28;20464;-73
2022/10/02 03:29:16;;;;;;;9.52;4.60;;;10.50;99.90;;;;;;5035181;28;20092;-73
2022/10/02 03:31:42;;;;;;;7.93;4.55;;;10.60;99.90;;;;;;5018770;28;20029;-73
2022/10/02 03:34:08;;;;;;;7.18;4.50;;;10.70;99.90;;;;;;5040989;28;20031;-73
2022/10/02 03:36:34;;;;;;;11.15;4.60;;;10.70;99.90;;;;;;5016501;28;20017;-73
2022/10/02 03:39:01;;;;;;;12.02;5.25;;;10.80;99.90;;;;;;5017138;28;20026;-73
2022/10/02 03:41:27;;;;;;;11.77;4.60;;;10.80;99.90;;;;;;5016858;28;20053;-73
2022/10/02 03:43:52;;;;;;;8.95;4.78;;;10.80;99.90;;;;;;5033987;28;20033;-73
2022/10/02 03:46:18;;;;;;;9.60;5.53;;;10.80;99.90;;;;;;5033504;28;20100;-73
2022/10/02 03:48:43;;;;;;;7.20;4.50;;;10.90;99.90;;;;;;5015882;28;20027;-73
2022/10/02 03:51:09;;;;;;;13.88;5.45;;;10.80;99.90;;;;;;5033813;28;20025;-73
2022/10/02 03:53:35;;;;;;;10.88;4.72;;;10.70;99.90;;;;;;5032643;28;20036;-73
2022/10/02 03:56:24;;;;;;;10.23;4.60;;;10.60;99.90;;;;;;5016025;28;20036;-73
2022/10/02 03:58:52;;;;;;;10.35;4.63;;;10.60;99.90;;;;;;5033647;28;20506;-73
2022/10/02 04:01:27;;;;;;;11.07;4.85;;;10.60;99.90;;;;;;5015657;28;20021;-73
2022/10/02 04:04:00;;;;;;;13.25;4.80;;;10.60;99.90;;;;;;5033346;28;20017;-73
2022/10/02 04:06:45;;;;;;;11.13;5.13;;;10.70;99.90;;;;;;5033693;28;20029;-73
2022/10/02 04:09:26;;;;;;;12.60;5.68;;;10.80;99.90;;;;;;5033289;28;20025;-73
2022/10/02 04:11:58;;;;;;;14.48;5.90;;;10.80;99.90;;;;;;5016677;28;20029;-73
2022/10/02 04:14:50;;;;;;;11.23;5.55;;;10.90;99.90;;;;;;5015630;28;20029;-73
2022/10/02 04:17:26;;;;;;;15.23;5.80;;;10.90;99.90;;;;;;5033772;28;20029;-73
2022/10/02 04:19:51;;;;;;;14.35;6.45;;;10.90;99.90;;;;;;5015471;28;20034;-73
2022/10/02 04:22:29;;;;;;;12.75;5.40;;;10.90;99.90;;;;;;5033111;28;20088;-73
2022/10/02 04:25:13;;;;;;;10.00;5.30;;;10.90;99.90;;;;;;5015361;28;20393;-73
2022/10/02 04:27:51;;;;;;;11.30;5.55;;;10.90;99.90;;;;;;5015348;28;20064;-73
2022/10/02 04:30:18;;;;;;;13.20;5.32;;;10.90;99.90;;;;;;5033141;28;20105;-73
2022/10/02 04:32:44;;;;;;;14.25;5.90;;;10.90;99.90;;;;;;5033434;28;20025;-73
2022/10/02 04:35:46;;;;;;;12.43;5.55;;;10.90;99.90;;;;;;5015312;28;20132;-73
2022/10/02 04:38:36;;;;;;;10.50;6.10;;;10.90;99.90;;;;;;5039056;28;20029;-73
2022/10/02 04:41:31;;;;;;;16.40;5.60;;;10.90;99.90;;;;;;5033679;28;20108;-73
2022/10/02 04:44:23;;;;;;;10.90;5.50;;;11.10;99.90;;;;;;5033122;28;20119;-73
2022/10/02 04:47:20;;;;;;;15.57;5.65;;;11.10;99.90;;;;;;5032934;28;20051;-73
2022/10/02 04:49:53;;;;;;;11.07;5.35;;;11.10;99.90;;;;;;5014573;28;20029;-73
2022/10/02 04:52:40;;;;;;;15.18;5.40;;;11.10;99.90;;;;;;5033574;28;20028;-73
2022/10/02 04:55:43;;;;;;;11.75;5.38;;;11.00;99.90;;;;;;5015656;28;20022;-73
2022/10/02 04:58:21;;;;;;;11.20;5.57;;;11.00;99.90;;;;;;5015375;28;20038;-73
2022/10/02 05:00:51;;;;;;;14.57;5.72;;;11.00;99.90;;;;;;5032928;28;20469;-73
2022/10/02 05:03:46;;;;;;;21.17;5.82;;;11.00;99.90;;;;;;5015154;28;20076;-73
2022/10/02 05:06:29;;;;;;;12.82;6.10;;;11.10;99.90;;;;;;5018716;28;20047;-73
2022/10/02 05:09:20;;;;;;;11.23;5.25;;;11.10;99.90;;;;;;5036884;28;20026;-73
2022/10/02 05:11:51;;;;;;;13.65;5.78;;;11.00;99.90;;;;;;5018709;28;20502;-73
2022/10/02 05:14:19;;;;;;;12.20;6.20;;;11.10;99.90;;;;;;5018698;28;20124;-73
2022/10/02 05:17:06;;;;;;;12.18;5.95;;;11.10;99.90;;;;;;5018523;28;20026;-73
2022/10/02 05:19:46;;;;;;;14.40;5.72;;;11.10;99.90;;;;;;5018541;28;20030;-73
2022/10/02 05:22:34;;;;;;;9.57;4.78;;;11.10;99.90;;;;;;5036500;28;20176;-73
2022/10/02 05:25:21;;;;;;;14.23;5.63;;;11.20;99.90;;;;;;5019064;28;20024;-73
2022/10/02 05:28:10;;;;;;;9.85;5.15;;;11.30;99.90;;;;;;5019312;28;20025;-73
2022/10/02 05:31:17;;;;;;;12.77;4.88;;;11.40;99.90;;;;;;5018413;28;20477;-73
2022/10/02 05:33:49;;;;;;;11.80;5.88;;;11.50;99.90;;;;;;5036342;28;20025;-73
2022/10/02 05:36:17;;;;;;;11.50;6.50;;;11.50;99.90;;;;;;5018677;28;20025;-73
2022/10/02 05:39:15;;;;;;;11.32;4.68;;;11.50;99.90;;;;;;5036005;28;20034;-73
2022/10/02 05:41:55;;;;;;;12.15;5.95;;;11.40;99.90;;;;;;5040046;28;20095;-73
2022/10/02 05:44:44;;;;;;;16.10;6.88;;;11.30;99.90;;;;;;5019744;28;20124;-73
2022/10/02 05:47:16;;;;;;;17.15;7.47;;;11.30;99.90;;;;;;5018349;28;20068;-73
2022/10/02 05:50:01;;;;;;;23.10;8.10;;;11.30;99.90;;;;;;5018964;28;20125;-73
2022/10/02 05:52:45;;;;;;;17.45;7.82;;;11.30;99.90;;;;;;5018172;28;20026;-73
2022/10/02 05:55:46;;;;;;;22.80;7.82;;;11.40;99.90;;;;;;5035741;28;20052;-73
2022/10/02 05:58:36;;;;;;;22.53;8.30;;;11.40;99.90;;;;;;5017979;28;20032;-73
2022/10/02 06:01:13;;;;;;;27.17;8.70;;;11.40;99.90;;;;;;5017891;28;20030;-73
2022/10/02 06:04:02;;;;;;;26.13;8.68;;;11.50;99.90;;;;;;5036008;28;20025;-73
2022/10/02 06:06:53;;;;;;;20.48;8.45;;;11.50;99.90;;;;;;5018168;28;20017;-73
2022/10/02 06:09:43;;;;;;;28.10;7.55;;;11.40;99.90;;;;;;5018614;28;20025;-73
2022/10/02 06:12:25;;;;;;;16.52;6.70;;;11.30;99.90;;;;;;5017665;28;20022;-73
2022/10/02 06:15:03;;;;;;;;;;;11.20;99.90;;;;;;5017922;28;20029;-73
2022/10/02 06:17:51;;;;;;;21.70;7.68;;;11.20;99.90;;;;;;5035335;28;19905;-75
2022/10/02 06:20:28;;;;;;;24.65;8.98;;;11.30;99.90;;;;;;5017775;28;20033;-75
2022/10/02 06:22:57;;;;;;;19.88;7.30;;;11.40;99.90;;;;;;5035382;28;20021;-74
2022/10/02 06:25:28;;;;;;;21.80;7.13;;;11.40;99.90;;;;;;5017534;28;20082;-73
2022/10/02 06:28:04;;;;;;;26.50;6.97;;;11.30;99.90;;;;;;5017615;28;20064;-73
2022/10/02 06:30:34;;;;;;;26.95;8.48;;;11.20;99.90;;;;;;5017177;28;20645;-73
2022/10/02 06:33:09;;;;;;;24.23;8.55;;;11.40;99.90;;;;;;5017187;28;20030;-71
2022/10/02 06:35:46;;;;;;;28.15;9.48;;;11.50;99.90;;;;;;5035022;28;20032;-71
2022/10/02 06:38:34;;;;;;;21.67;7.57;;;11.50;99.90;;;;;;5017387;28;20079;-71
2022/10/02 06:41:11;;;;;;;20.05;7.70;;;11.50;99.90;;;;;;5018149;28;20082;-71
2022/10/02 06:43:59;;;;;;;25.58;9.02;;;11.50;99.90;;;;;;5017608;28;20041;-73
2022/10/02 06:46:44;;;;;;;26.00;9.10;;;11.40;99.90;;;;;;5017105;28;20025;-73
2022/10/02 06:49:52;;;;;;;25.40;8.45;;;11.60;99.90;;;;;;5016838;28;20021;-73
2022/10/02 06:52:59;;;;;;;26.27;9.07;;;11.50;99.90;;;;;;5016859;28;20080;-73
2022/10/02 06:55:47;;;;;;;33.20;10.30;;;11.60;99.90;;;;;;5016614;28;20029;-73
2022/10/02 06:58:31;;;;;;;31.23;9.57;;;11.70;99.90;;;;;;5034347;28;20029;-73
2022/10/02 07:01:18;;;;;;;25.85;9.60;;;11.60;99.90;;;;;;5016667;28;20029;-73
2022/10/02 07:04:04;;;;;;;26.45;9.75;;;11.70;99.90;;;;;;5016581;28;20029;-73
2022/10/02 07:06:59;;;;;;;26.02;7.97;;;11.80;99.90;;;;;;5016517;28;20057;-73
2022/10/02 07:09:49;;;;;;;24.63;9.02;;;11.70;99.90;;;;;;5034568;28;20018;-73
2022/10/02 07:12:24;;;;;;;24.05;9.13;;;11.80;99.90;;;;;;5017077;28;20021;-73
2022/10/02 07:15:02;;;;;;;33.80;9.75;;;11.90;99.90;;;;;;5034149;28;20029;-73
2022/10/02 07:18:05;;;;;;;27.20;8.13;;;11.90;99.90;;;;;;5017522;28;20036;-73
2022/10/02 07:20:47;;;;;;;32.17;8.05;;;11.90;99.90;;;;;;5016166;28;20033;-73
2022/10/02 07:23:18;;;;;;;28.30;7.53;;;12.00;99.90;;;;;;5017261;28;20022;-73
2022/10/02 07:25:58;;;;;;;;;;;11.90;99.90;;;;;;5034723;28;20032;-73
2022/10/02 07:28:23;;;;;;;24.83;7.35;;;12.00;99.90;;;;;;5016047;28;19909;-73
2022/10/02 07:31:19;;;;;;;22.00;7.10;;;12.00;99.90;;;;;;5016235;28;20021;-73
2022/10/02 07:34:17;;;;;;;26.30;8.13;;;12.10;99.90;;;;;;4934594;29;20068;-73
2022/10/02 07:37:47;;;;;;;24.60;6.82;;;12.10;99.90;;;;;;4934568;29;20508;-73
2022/10/02 07:40:24;;;;;;;24.08;8.00;;;12.20;99.90;;;;;;4863841;29;20049;-73
2022/10/02 07:43:21;;;;;;;28.38;7.72;;;12.20;99.90;;;;;;4934421;29;20084;-73
2022/10/02 07:46:09;;;;;;;27.00;8.38;;;12.20;99.90;;;;;;4934510;29;20032;-73
2022/10/02 07:49:00;;;;;;;22.85;6.75;;;12.30;99.90;;;;;;4934351;29;20028;-73
2022/10/02 07:52:01;;;;;;;21.90;7.50;;;12.30;99.90;;;;;;4934415;29;20036;-73
2022/10/02 07:54:37;;;;;;;20.10;6.43;;;12.40;99.90;;;;;;4932487;29;20044;-73
2022/10/02 07:57:35;;;;;;;29.23;6.38;;;12.50;99.90;;;;;;4934126;29;20028;-73
2022/10/02 08:00:14;;;;;;;22.50;6.10;;;12.60;99.90;;;;;;4934816;29;20498;-75
2022/10/02 08:02:59;;;;;;;16.80;5.38;;;12.60;99.90;;;;;;4935149;29;20027;-75
2022/10/02 08:05:41;;;;;;;19.98;4.75;;;12.70;99.90;;;;;;4935159;29;20032;-75
2022/10/02 08:08:29;;;;;;;15.88;4.32;;;12.80;99.90;;;;;;4935161;29;20024;-75
2022/10/02 08:11:02;;;;;;;14.05;3.58;;;13.00;99.90;;;;;;4987008;28;20119;-75
2022/10/02 08:13:40;;;;;;;12.20;3.90;;;13.10;99.90;;;;;;5017323;28;20124;-75
2022/10/02 08:16:08;;;;;;;19.23;4.72;;;13.10;99.90;;;;;;5034138;28;20017;-75
2022/10/02 08:18:56;;;;;;;18.77;4.88;;;13.20;99.90;;;;;;5016224;28;20025;-76
2022/10/02 08:21:24;;;;;;;18.73;4.47;;;13.20;99.90;;;;;;5005769;28;20091;-76
2022/10/02 08:24:22;;;;;;;9.70;3.20;;;13.20;99.90;;;;;;5015950;28;20025;-76
2022/10/02 08:26:54;;;;;;;13.02;5.43;;;13.40;99.90;;;;;;5035021;28;20105;-75
2022/10/02 08:29:39;;;;;;;8.20;2.80;;;13.40;99.90;;;;;;5017342;28;20025;-76
2022/10/02 08:32:11;;;;;;;16.17;3.92;;;13.50;99.90;;;;;;5017689;28;20036;-76
2022/10/02 08:34:37;;;;;;;13.80;3.30;;;13.50;99.90;;;;;;5016930;28;20389;-74
2022/10/02 08:37:32;;;;;;;10.95;3.70;;;13.50;99.90;;;;;;5033011;28;20025;-74
2022/10/02 08:40:23;;;;;;;13.57;3.75;;;13.50;99.90;;;;;;5017720;28;20022;-75
2022/10/02 08:43:26;;;;;;;8.52;3.40;;;13.50;99.90;;;;;;5020187;28;20022;-73
2022/10/02 08:46:01;;;;;;;10.07;2.58;;;13.60;99.90;;;;;;5019620;28;20033;-73
2022/10/02 08:49:05;;;;;;;11.73;2.53;;;13.60;99.90;;;;;;5019182;28;20028;-73
2022/10/02 08:52:00;;;;;;;11.77;3.33;;;13.50;99.90;;;;;;5036797;28;20071;-73
2022/10/02 08:55:03;;;;;;;11.45;2.95;;;13.60;99.90;;;;;;5019185;28;20021;-70
2022/10/02 08:57:56;;;;;;;9.77;2.40;;;13.80;99.90;;;;;;5020151;28;20025;-70
2022/10/02 09:00:48;;;;;;;6.55;2.58;;;14.00;99.90;;;;;;5020970;28;20026;-74
2022/10/02 09:03:26;;;;;;;12.18;2.67;;;14.00;99.90;;;;;;5020313;28;20022;-74
2022/10/02 09:06:25;;;;;;;12.43;5.22;;;13.90;99.90;;;;;;5038284;28;20108;-74
2022/10/02 09:09:19;;;;;;;8.13;3.00;;;13.90;99.90;;;;;;5038131;28;20025;-74
2022/10/02 09:12:10;;;;;;;11.23;3.08;;;13.80;99.90;;;;;;5020752;28;20026;-74
2022/10/02 09:14:38;;;;;;;13.40;2.90;;;13.90;99.90;;;;;;5019849;28;20088;-74
2022/10/02 09:17:22;;;;;;;10.35;2.70;;;13.90;99.90;;;;;;5020810;28;20272;-74
2022/10/02 09:20:03;;;;;;;12.25;2.10;;;14.00;99.90;;;;;;5020288;28;20117;-74
2022/10/02 09:22:56;;;;;;;11.02;2.75;;;14.10;99.90;;;;;;5038049;28;20021;-74
2022/10/02 09:25:34;;;;;;;10.93;2.25;;;14.20;99.90;;;;;;5019197;28;20036;-73
2022/10/02 09:28:21;;;;;;;9.32;2.08;;;14.30;99.90;;;;;;5037793;28;20030;-73
2022/10/02 09:31:17;;;;;;;17.48;7.45;;;14.30;99.90;;;;;;5020622;28;20018;-73
2022/10/02 09:34:32;;;;;;;5.93;2.88;;;14.40;99.90;;;;;;4952008;28;20063;-75
2022/10/02 09:37:11;;;;;;;16.67;7.57;;;14.50;99.90;;;;;;5020545;28;20060;-76
2022/10/02 09:40:05;;;;;;;8.05;3.05;;;14.50;99.90;;;;;;5037808;28;20033;-76
2022/10/02 09:42:56;;;;;;;8.95;3.25;;;14.50;99.90;;;;;;5037207;28;20021;-76
2022/10/02 09:46:03;;;;;;;7.03;2.00;;;14.50;99.90;;;;;;5019916;28;20031;-74
2022/10/02 09:48:44;;;;;;;9.27;2.38;;;14.50;99.90;;;;;;5038458;28;20064;-75
2022/10/02 09:51:15;;;;;;;7.35;1.52;;;14.60;99.90;;;;;;5019113;28;20093;-75
2022/10/02 09:54:02;;;;;;;6.45;2.17;;;14.70;99.90;;;;;;5021393;28;20017;-75
2022/10/02 09:56:38;;;;;;;7.90;2.33;;;14.70;99.90;;;;;;5038945;28;20026;-75
2022/10/02 09:59:28;;;;;;;9.48;2.28;;;14.80;99.90;;;;;;5038356;28;20048;-75
2022/10/02 10:02:35;;;;;;;12.57;2.75;;;14.80;99.90;;;;;;5038112;28;20018;-76
2022/10/02 10:05:34;;;;;;;7.28;1.80;;;14.90;99.90;;;;;;4972147;28;20030;-74
2022/10/02 10:08:37;;;;;;;8.30;1.92;;;14.90;99.90;;;;;;5019706;28;20070;-74
2022/10/02 10:11:29;;;;;;;10.52;2.00;;;15.00;99.90;;;;;;5036862;28;20080;-74
2022/10/02 10:14:17;;;;;;;11.05;2.42;;;14.90;99.90;;;;;;5019749;28;20025;-75
2022/10/02 10:17:18;;;;;;;6.32;2.33;;;14.90;99.90;;;;;;5036948;28;20048;-74
2022/10/02 10:20:08;;;;;;;8.80;2.22;;;14.90;99.90;;;;;;5019069;28;20116;-75
2022/10/02 10:22:56;;;;;;;5.25;1.48;;;14.90;99.90;;;;;;5019711;28;20029;-75
2022/10/02 10:25:38;;;;;;;6.38;1.90;;;14.90;99.90;;;;;;5020118;28;20022;-74
2022/10/02 10:28:10;;;;;;;5.90;1.50;;;14.80;99.90;;;;;;5019038;28;20030;-75
2022/10/02 10:30:38;;;;;;;1.60;0.95;;;14.80;99.90;;;;;;5019600;28;20018;-75
2022/10/02 10:33:49;;;;;;;3.00;1.40;;;14.80;99.90;;;;;;5020175;28;20067;-75
2022/10/02 10:39:55;;;;;;;5.80;1.70;;;14.90;99.90;;;;;;5036850;28;20060;-74
2022/10/02 10:42:56;;;;;;;6.25;2.15;;;14.90;99.90;;;;;;5019096;28;20116;-74
2022/10/02 10:45:57;;;;;;;4.32;2.10;;;14.80;99.90;;;;;;5009314;28;20084;-74
2022/10/02 10:48:50;;;;;;;6.38;2.10;;;14.80;99.90;;;;;;5020436;28;20022;-75
2022/10/02 10:51:34;;;;;;;3.25;1.58;;;14.90;99.90;;;;;;5019066;28;20029;-75
2022/10/02 10:54:07;;;;;;;5.18;1.35;;;14.90;99.90;;;;;;5018428;28;20033;-75
2022/10/02 10:56:43;;;;;;;6.15;1.70;;;14.90;99.90;;;;;;5036628;28;20025;-75
2022/10/02 10:59:29;;;;;;;2.72;1.30;;;14.90;99.90;;;;;;5018871;28;20026;-75
2022/10/02 11:02:24;;;;;;;3.05;0.93;;;15.00;99.90;;;;;;5019775;28;20018;-75
2022/10/02 11:05:14;;;;;;;9.73;8.40;;;15.10;99.90;;;;;;5020297;28;20120;-75
2022/10/02 11:08:19;;;;;;;2.45;1.77;;;15.20;99.90;;;;;;5019514;28;20021;-75
2022/10/02 11:11:02;;;;;;;3.35;1.20;;;15.20;99.90;;;;;;5020123;28;20183;-75
2022/10/02 11:13:53;;;;;;;2.85;1.50;;;15.40;99.90;;;;;;5019251;28;20033;-75
2022/10/02 11:16:44;;;;;;;4.25;1.10;;;15.40;99.90;;;;;;5018857;28;20029;-74
2022/10/02 11:19:36;;;;;;;3.80;1.30;;;15.50;99.90;;;;;;5018815;28;20064;-76
2022/10/02 11:22:15;;;;;;;3.08;1.00;;;15.60;99.90;;;;;;5019523;28;20056;-75
2022/10/02 11:24:56;;;;;;;1.45;0.90;;;15.60;99.90;;;;;;5019450;28;20029;-75
2022/10/02 11:27:45;;;;;;;4.18;1.05;;;15.80;99.90;;;;;;5018646;28;20037;-75
2022/10/02 11:30:23;;;;;;;4.05;1.42;;;15.90;99.90;;;;;;5019042;28;20025;-75
2022/10/02 11:32:56;;;;;;;1.65;0.70;;;16.00;99.90;;;;;;5019901;28;20075;-75
2022/10/02 11:35:36;;;;;;;3.63;1.75;;;16.10;99.90;;;;;;5017999;28;20036;-74
2022/10/02 11:38:44;;;;;;;8.52;1.50;;;16.20;99.90;;;;;;5018261;28;20036;-74
2022/10/02 11:41:58;;;;;;;5.45;1.40;;;16.20;99.90;;;;;;5018295;28;20046;-74
2022/10/02 11:44:39;;;;;;;9.32;1.90;;;16.30;99.90;;;;;;5016186;28;20152;-74
2022/10/02 11:47:33;;;;;;;1.47;0.93;;;16.30;99.90;;;;;;5018899;28;20498;-75
2022/10/02 11:50:24;;;;;;;3.17;1.35;;;16.30;99.90;;;;;;5018231;28;20343;-74
2022/10/02 11:53:09;;;;;;;3.15;1.00;;;16.40;99.90;;;;;;5018385;28;20025;-75
2022/10/02 11:56:09;;;;;;;6.85;1.08;;;16.60;99.90;;;;;;5018228;28;20052;-74
2022/10/02 11:58:51;;;;;;;5.50;1.17;;;16.90;99.90;;;;;;5017207;28;20025;-74
2022/10/02 12:01:44;;;;;;;6.70;1.50;;;17.20;99.90;;;;;;5015760;28;20025;-74
2022/10/02 12:04:25;;;;;;;3.53;1.33;;;17.10;99.90;;;;;;4998581;28;20104;-75
2022/10/02 12:07:30;;;;;;;2.25;1.13;;;17.10;99.90;;;;;;4998140;28;20018;-74
2022/10/02 12:10:10;;;;;;;2.40;1.35;;;17.00;99.90;;;;;;4998749;28;20037;-73
2022/10/02 12:12:47;;;;;;;5.40;1.20;;;16.90;99.90;;;;;;4999597;28;20089;-73
2022/10/02 12:15:46;;;;;;;2.25;1.35;;;17.10;99.90;;;;;;5015315;28;20022;-72
2022/10/02 12:18:19;;;;;;;7.93;2.53;;;17.30;99.90;;;;;;4997211;28;20032;-72
2022/10/02 12:26:57;;;;;;;5.57;1.90;;;17.60;99.90;;;;;;5014541;28;20091;-72
2022/10/02 12:29:42;;;;;;;5.60;1.60;;;17.60;99.90;;;;;;4997634;28;20026;-72
2022/10/02 12:32:44;;;;;;;4.55;1.83;;;17.50;99.90;;;;;;4997361;28;20327;-72
2022/10/02 12:35:26;;;;;;;5.78;2.00;;;17.40;99.90;;;;;;5014896;28;20086;-72
2022/10/02 12:37:57;;;;;;;;;;;17.40;99.90;;;;;;4998386;28;20030;-72
2022/10/02 12:40:44;;;;;;;5.75;2.33;;;17.20;99.90;;;;;;4998239;28;19909;-72
2022/10/02 12:43:38;;;;;;;6.43;2.70;;;17.00;99.90;;;;;;4998368;28;20030;-72
2022/10/02 12:46:27;;;;;;;5.30;2.65;;;16.90;99.90;;;;;;4998820;28;20076;-72
2022/10/02 12:49:29;;;;;;;4.97;2.40;;;16.80;99.90;;;;;;5015369;28;20108;-73
2022/10/02 12:52:27;;;;;;;5.30;2.30;;;16.80;99.90;;;;;;4999437;28;20026;-73
2022/10/02 12:55:11;;;;;;;11.68;3.00;;;16.70;99.90;;;;;;5016195;28;20022;-72
2022/10/02 12:57:57;;;;;;;6.93;2.25;;;16.90;99.90;;;;;;5016359;28;20030;-72
2022/10/02 13:00:29;;;;;;;14.93;2.90;;;17.00;99.90;;;;;;4999590;28;20030;-72
2022/10/02 13:03:34;;;;;;;5.40;2.38;;;17.30;99.90;;;;;;4998856;28;20036;-72
2022/10/02 13:06:41;;;;;;;4.80;2.67;;;17.10;99.90;;;;;;5016039;28;20116;-72
2022/10/02 13:09:25;;;;;;;4.55;2.17;;;17.00;99.90;;;;;;4999543;28;20105;-72
2022/10/02 13:12:03;;;;;;;5.40;2.30;;;16.70;99.90;;;;;;4998723;28;20022;-72
2022/10/02 13:14:37;;;;;;;5.18;2.58;;;16.60;99.90;;;;;;4998548;28;20049;-73
2022/10/02 13:17:22;;;;;;;8.93;2.78;;;16.70;99.90;;;;;;5016048;28;20030;-72
2022/10/02 13:20:25;;;;;;;6.45;2.72;;;17.00;99.90;;;;;;4998656;28;20030;-72
2022/10/02 13:23:05;;;;;;;6.93;2.90;;;17.10;99.90;;;;;;4998792;28;20033;-72
2022/10/02 13:25:43;;;;;;;9.23;2.45;;;17.40;99.90;;;;;;5000064;28;20018;-71
2022/10/02 13:28:33;;;;;;;8.82;3.10;;;17.70;99.90;;;;;;5016448;28;20036;-71
2022/10/02 13:31:07;;;;;;;8.07;2.80;;;17.70;99.90;;;;;;4998942;28;20034;-71
2022/10/02 13:33:51;;;;;;;10.40;3.30;;;17.70;99.90;;;;;;4998824;28;20026;-71
2022/10/02 13:36:34;;;;;;;9.40;3.15;;;18.20;99.90;;;;;;4998686;28;20120;-71
2022/10/02 13:39:22;;;;;;;12.15;2.45;;;18.40;99.90;;;;;;4999472;28;20030;-71
2022/10/02 13:42:01;;;;;;;5.28;2.85;;;18.50;99.90;;;;;;4998824;28;20018;-71
2022/10/02 13:44:45;;;;;;;5.60;2.00;;;18.50;99.90;;;;;;5016439;28;20022;-71
2022/10/02 13:47:37;;;;;;;7.25;2.33;;;18.60;99.90;;;;;;4998458;28;20018;-71
2022/10/02 13:50:27;;;;;;;3.95;1.67;;;18.70;99.90;;;;;;5016121;28;20017;-71
2022/10/02 13:53:07;;;;;;;4.10;1.90;;;18.60;99.90;;;;;;5016099;28;20050;-71
2022/10/02 13:55:45;;;;;;;4.38;1.40;;;18.20;99.90;;;;;;4998212;28;20120;-71
2022/10/02 13:58:43;;;;;;;4.18;1.65;;;18.80;99.90;;;;;;5015900;28;20048;-71
2022/10/02 14:01:27;;;;;;;6.15;1.90;;;18.80;99.90;;;;;;4947753;28;20046;-71
2022/10/02 14:04:26;;;;;;;7.63;1.50;;;19.00;99.90;;;;;;4998092;28;20036;-71
2022/10/02 14:07:04;;;;;;;7.95;1.83;;;19.10;99.90;;;;;;4936137;29;20039;-71
2022/10/02 14:09:39;;;;;;;5.65;1.63;;;19.50;99.90;;;;;;4936111;29;20078;-71
2022/10/02 14:12:31;;;;;;;5.38;1.50;;;19.60;99.90;;;;;;4936181;29;20040;-71
2022/10/02 14:15:04;;;;;;;3.30;1.50;;;20.20;99.90;;;;;;4936738;29;20107;-71
2022/10/02 14:17:52;;;;;;;5.10;1.33;;;20.30;99.90;;;;;;4936348;29;20063;-71